Time;durP1;ratioP1;P1;durP2;ratioP2;P2;SDS_P1;SDS_P2;PMS_P1;PMS_P2;Temp;Humidity;BMP_temperature;BMP_pressure;BME280_temperature;BME280_humidity;BME280_pressure;Samples;Min_cycle;Max_cycle;Signal;HPM_P1;HPM_P2
2021/11/06 00:00:46;;;;;;;22.25;14.43;;;;;;;6.09;78.27;97838.41;5037515;28;20534;-75
2021/11/06 00:03:14;;;;;;;21.67;14.68;;;;;;;6.10;77.35;97842.66;5037653;28;20046;-75
2021/11/06 00:05:42;;;;;;;21.90;15.30;;;;;;;6.10;76.85;97847.84;5037284;28;20507;-76
2021/11/06 00:08:09;;;;;;;26.48;14.98;;;;;;;6.04;76.28;97843.16;5037958;28;20050;-76
2021/11/06 00:10:38;;;;;;;23.13;15.68;;;;;;;5.95;76.59;97843.88;5036834;28;20060;-75
2021/11/06 00:13:06;;;;;;;21.92;15.30;;;;;;;5.94;77.13;97853.41;5037872;28;20045;-76
2021/11/06 00:15:33;;;;;;;25.48;16.05;;;;;;;5.99;77.22;97847.84;5037805;28;20053;-75
2021/11/06 00:18:01;;;;;;;22.77;15.65;;;;;;;5.97;77.08;97837.63;5037700;28;20045;-75
2021/11/06 00:20:28;;;;;;;25.98;15.65;;;;;;;5.95;77.37;97851.66;5037022;28;20069;-74
2021/11/06 00:22:56;;;;;;;26.25;16.58;;;;;;;5.94;76.99;97847.38;5037255;28;20061;-75
2021/11/06 00:25:24;;;;;;;23.38;14.88;;;;;;;5.92;77.28;97844.91;5037298;28;20099;-75
2021/11/06 00:27:53;;;;;;;23.40;15.93;;;;;;;5.95;77.11;97843.88;5037162;28;20046;-74
2021/11/06 00:30:21;;;;;;;23.00;13.70;;;;;;;6.01;78.28;97847.75;5036910;28;20057;-74
2021/11/06 00:32:48;;;;;;;25.00;16.95;;;;;;;6.06;77.66;97849.03;5037074;28;20049;-75
2021/11/06 00:35:16;;;;;;;32.25;19.75;;;;;;;6.07;77.38;97853.25;5037179;28;20050;-75
2021/11/06 00:37:45;;;;;;;35.53;22.50;;;;;;;6.08;77.75;97851.47;5037923;28;20045;-75
2021/11/06 00:40:14;;;;;;;26.17;16.88;;;;;;;6.12;78.43;97856.31;5042652;28;20049;-74
2021/11/06 00:42:42;;;;;;;28.08;17.98;;;;;;;6.20;78.76;97853.09;5057556;28;20056;-73
2021/11/06 00:45:12;;;;;;;25.63;17.20;;;;;;;6.24;77.44;97853.69;5057573;28;20054;-74
2021/11/06 00:47:42;;;;;;;24.85;15.90;;;;;;;6.26;77.95;97859.56;5045391;28;20049;-75
2021/11/06 00:50:12;;;;;;;24.73;16.92;;;;;;;6.28;77.98;97861.09;5039218;28;20046;-74
2021/11/06 00:52:40;;;;;;;28.20;17.00;;;;;;;6.31;77.72;97860.00;5039107;28;20053;-75
2021/11/06 00:55:08;;;;;;;22.88;16.10;;;;;;;6.36;78.24;97852.66;5037900;28;20046;-74
2021/11/06 00:57:35;;;;;;;29.77;19.52;;;;;;;6.37;77.87;97859.50;5036651;28;20515;-75
2021/11/06 01:00:05;;;;;;;34.88;19.95;;;;;;;6.29;77.10;97864.50;5036503;28;20307;-75
2021/11/06 01:02:33;;;;;;;29.40;19.17;;;;;;;6.23;77.44;97868.41;5036695;28;20068;-74
2021/11/06 01:05:01;;;;;;;31.30;18.58;;;;;;;6.23;77.67;97867.56;5036728;28;20049;-74
2021/11/06 01:07:29;;;;;;;39.38;22.83;;;;;;;6.17;77.38;97858.53;5036639;28;20052;-75
2021/11/06 01:09:56;;;;;;;43.50;24.27;;;;;;;6.12;77.93;97866.69;5035899;28;20519;-75
2021/11/06 01:12:24;;;;;;;41.47;23.15;;;;;;;6.10;77.83;97862.53;5036086;28;20061;-75
2021/11/06 01:14:51;;;;;;;43.63;24.27;;;;;;;6.08;78.15;97862.69;5088134;22;20044;-77
2021/11/06 01:17:19;;;;;;;41.40;24.45;;;;;;;6.06;78.07;97864.56;5075693;28;20052;-77
2021/11/06 01:19:48;;;;;;;41.85;23.58;;;;;;;6.05;78.32;97864.69;5075538;28;20071;-78
2021/11/06 01:22:15;;;;;;;43.47;25.52;;;;;;;6.05;78.40;97862.91;5075535;28;20245;-77
2021/11/06 01:24:43;;;;;;;38.50;22.35;;;;;;;6.09;78.92;97863.50;5075531;28;20444;-78
2021/11/06 01:27:11;;;;;;;39.83;23.25;;;;;;;6.15;78.92;97873.38;5075582;28;20056;-77
2021/11/06 01:29:38;;;;;;;36.53;22.85;;;;;;;6.19;78.51;97867.81;5075133;28;20052;-78
2021/11/06 01:32:08;;;;;;;35.55;22.27;;;;;;;6.24;78.69;97864.03;5076384;28;20049;-77
2021/11/06 01:34:36;;;;;;;43.20;24.52;;;;;;;6.29;78.57;97867.06;5075591;28;20080;-78
2021/11/06 01:37:05;;;;;;;40.35;22.73;;;;;;;6.32;78.65;97861.63;5076102;28;20494;-77
2021/11/06 01:39:33;;;;;;;44.83;24.55;;;;;;;6.34;78.28;97863.19;5075613;28;20056;-77
2021/11/06 01:42:01;;;;;;;36.20;21.48;;;;;;;6.33;77.63;97864.13;5075544;28;20048;-77
2021/11/06 01:44:30;;;;;;;40.90;24.08;;;;;;;6.27;77.39;97866.38;5075637;28;20056;-77
2021/11/06 01:46:58;;;;;;;40.30;23.75;;;;;;;6.15;77.76;97866.41;5075354;28;20063;-78
2021/11/06 01:49:25;;;;;;;45.03;25.88;;;;;;;6.08;78.13;97867.88;5075149;28;20060;-78
2021/11/06 01:51:54;;;;;;;38.45;23.25;;;;;;;6.06;78.27;97866.34;5075104;28;20048;-77
2021/11/06 01:54:25;;;;;;;44.75;24.73;;;;;;;6.04;78.28;97861.28;5075343;28;20053;-78
2021/11/06 01:56:54;;;;;;;42.50;23.70;;;;;;;6.02;78.83;97860.56;5075461;28;20052;-77
2021/11/06 01:59:21;;;;;;;42.72;25.10;;;;;;;6.04;78.86;97860.47;5074780;28;20055;-78
2021/11/06 02:01:49;;;;;;;42.75;26.35;;;;;;;6.05;78.55;97852.53;5075227;28;20053;-78
2021/11/06 02:04:17;;;;;;;41.35;25.27;;;;;;;6.05;78.63;97857.72;5074786;28;20059;-77
2021/11/06 02:06:45;;;;;;;47.80;26.52;;;;;;;6.05;78.95;97855.13;5075066;28;20135;-77
2021/11/06 02:09:13;;;;;;;37.00;23.50;;;;;;;6.04;78.89;97850.09;5074415;28;20056;-76
2021/11/06 02:11:42;;;;;;;35.35;22.63;;;;;;;6.02;78.70;97855.41;5074849;28;20052;-78
2021/11/06 02:14:10;;;;;;;35.28;20.80;;;;;;;6.02;78.98;97849.41;5074497;28;20052;-77
2021/11/06 02:16:38;;;;;;;36.45;21.48;;;;;;;6.02;79.02;97850.22;5075240;28;20055;-77
2021/11/06 02:19:06;;;;;;;37.05;22.10;;;;;;;6.00;79.15;97846.91;5074406;28;20059;-77
2021/11/06 02:21:36;;;;;;;35.00;20.95;;;;;;;6.00;79.21;97852.09;5074947;28;20044;-77
2021/11/06 02:24:06;;;;;;;33.92;20.90;;;;;;;6.02;79.09;97852.81;5074327;28;20056;-77
2021/11/06 02:26:34;;;;;;;33.90;22.08;;;;;;;6.05;79.13;97844.78;5074533;28;20052;-77
2021/11/06 02:29:11;;;;;;;34.47;21.63;;;;;;;6.13;79.61;97847.59;5074068;28;20048;-78
2021/11/06 02:31:39;;;;;;;39.95;23.77;;;;;;;6.22;80.09;97840.84;5074453;28;20123;-77
2021/11/06 02:34:07;;;;;;;40.85;24.38;;;;;;;6.30;80.13;97837.66;5075707;28;20055;-77
2021/11/06 02:36:37;;;;;;;37.65;23.20;;;;;;;6.38;80.05;97835.22;5075417;28;20052;-77
2021/11/06 02:39:05;;;;;;;34.60;22.08;;;;;;;6.42;79.33;97828.84;5075158;28;20045;-78
2021/11/06 02:41:34;;;;;;;38.83;24.63;;;;;;;6.41;78.78;97835.00;5075769;28;20052;-77
2021/11/06 02:44:07;;;;;;;37.92;24.40;;;;;;;6.42;78.55;97841.81;5075002;28;20056;-79
2021/11/06 02:46:36;;;;;;;40.28;25.63;;;;;;;6.41;78.52;97837.59;5075684;28;20122;-76
2021/11/06 02:49:04;;;;;;;42.47;26.00;;;;;;;6.39;77.98;97834.31;5074785;28;20044;-78
2021/11/06 02:51:32;;;;;;;35.83;23.65;;;;;;;6.36;77.96;97847.50;5075234;28;20498;-77
2021/11/06 02:54:00;;;;;;;37.17;25.27;;;;;;;6.33;77.94;97837.38;5074306;28;20055;-76
2021/11/06 02:56:29;;;;;;;41.92;26.38;;;;;;;6.30;78.10;97830.69;5074577;28;20060;-77
2021/11/06 02:58:57;;;;;;;38.53;24.38;;;;;;;6.27;77.77;97840.47;5074139;28;20106;-77
2021/11/06 03:01:25;;;;;;;32.78;22.42;;;;;;;6.24;77.79;97838.94;5074715;28;20066;-78
2021/11/06 03:03:53;;;;;;;32.58;21.52;;;;;;;6.24;77.73;97840.72;5073220;28;20044;-76
2021/11/06 03:06:20;;;;;;;33.45;21.55;;;;;;;6.22;77.67;97845.22;5074014;28;20059;-77
2021/11/06 03:08:48;;;;;;;33.53;22.38;;;;;;;6.18;77.77;97845.44;5073175;28;20059;-77
2021/11/06 03:11:16;;;;;;;39.80;25.30;;;;;;;6.15;77.46;97850.88;5073834;28;20538;-77
2021/11/06 03:13:45;;;;;;;34.30;22.88;;;;;;;6.14;77.92;97853.56;5073645;28;20056;-77
2021/11/06 03:16:15;;;;;;;28.55;19.92;;;;;;;6.16;77.91;97849.09;5073180;28;20114;-77
2021/11/06 03:18:42;;;;;;;30.02;20.45;;;;;;;6.18;77.56;97842.03;5073292;28;20059;-77
2021/11/06 03:21:10;;;;;;;34.35;21.08;;;;;;;6.18;77.38;97845.44;5073212;28;20429;-76
2021/11/06 03:23:38;;;;;;;39.97;23.30;;;;;;;6.17;77.24;97849.00;5073086;28;20052;-76
2021/11/06 03:26:05;;;;;;;35.38;22.45;;;;;;;6.12;77.38;97855.47;5076381;28;20052;-80
2021/11/06 03:28:34;;;;;;;33.95;21.45;;;;;;;6.08;77.41;97859.25;5076661;28;20056;-80
2021/11/06 03:31:01;;;;;;;33.15;21.60;;;;;;;6.05;77.32;97860.31;5074221;28;20052;-80
2021/11/06 03:33:29;;;;;;;32.25;21.02;;;;;;;6.04;77.80;97857.88;5074128;28;20048;-77
2021/11/06 03:35:57;;;;;;;32.35;20.38;;;;;;;6.03;77.42;97858.81;5074462;28;20053;-77
2021/11/06 03:38:24;;;;;;;29.83;19.42;;;;;;;6.03;77.57;97867.38;5073937;28;20056;-75
2021/11/06 03:40:52;;;;;;;29.95;19.35;;;;;;;6.00;77.79;97857.28;5073643;28;20049;-76
2021/11/06 03:43:20;;;;;;;29.10;18.90;;;;;;;5.98;77.64;97851.41;5073181;28;20060;-75
2021/11/06 03:45:49;;;;;;;32.78;20.27;;;;;;;5.92;77.51;97859.63;5073042;28;20720;-77
2021/11/06 03:48:17;;;;;;;27.65;19.08;;;;;;;5.89;77.50;97858.09;5072892;28;20056;-77
2021/11/06 03:50:44;;;;;;;28.88;18.30;;;;;;;5.88;77.66;97855.63;5072869;28;20174;-77
2021/11/06 03:53:12;;;;;;;28.13;18.15;;;;;;;5.88;77.49;97868.56;5072640;28;20067;-79
2021/11/06 03:55:40;;;;;;;33.25;19.63;;;;;;;5.88;77.96;97858.22;5072960;28;20059;-76
2021/11/06 03:58:07;;;;;;;31.27;18.25;;;;;;;5.89;77.77;97870.22;5072867;28;20092;-78
2021/11/06 04:00:34;;;;;;;27.02;18.30;;;;;;;5.88;77.68;97866.81;5073110;28;20040;-78
2021/11/06 04:03:03;;;;;;;28.40;18.92;;;;;;;5.84;77.53;97872.34;5073092;28;20052;-77
2021/11/06 04:05:31;;;;;;;35.75;20.63;;;;;;;5.76;77.14;97876.34;5072846;28;20045;-77
2021/11/06 04:07:58;;;;;;;29.55;17.98;;;;;;;5.71;77.55;97873.31;5073019;28;20055;-77
2021/11/06 04:10:26;;;;;;;32.35;19.73;;;;;;;5.71;77.83;97875.91;5072530;28;20514;-77
2021/11/06 04:12:53;;;;;;;31.00;19.23;;;;;;;5.70;77.98;97876.03;5072457;28;20041;-76
2021/11/06 04:15:21;;;;;;;31.95;18.92;;;;;;;5.69;78.17;97877.78;5074823;28;20052;-77
2021/11/06 04:17:48;;;;;;;31.02;18.63;;;;;;;5.70;77.77;97878.59;5076855;28;20057;-77
2021/11/06 04:20:17;;;;;;;28.17;17.75;;;;;;;5.69;77.90;97874.38;5076232;28;20056;-77
2021/11/06 04:22:44;;;;;;;29.88;18.13;;;;;;;5.70;78.01;97874.25;5076470;28;20049;-76
2021/11/06 04:25:12;;;;;;;31.40;18.05;;;;;;;5.69;77.52;97877.78;5076692;28;20044;-77
2021/11/06 04:27:40;;;;;;;29.13;18.00;;;;;;;5.69;77.79;97882.97;5077017;28;20422;-76
2021/11/06 04:30:09;;;;;;;30.23;18.10;;;;;;;5.73;78.07;97888.75;5076321;28;20067;-76
2021/11/06 04:32:37;;;;;;;36.83;20.00;;;;;;;5.69;77.80;97880.38;5076435;28;20052;-77
2021/11/06 04:35:05;;;;;;;33.03;18.95;;;;;;;5.60;77.69;97883.69;5075952;28;20053;-77
2021/11/06 04:37:34;;;;;;;36.70;20.52;;;;;;;5.51;78.08;97881.78;5076739;28;20049;-76
2021/11/06 04:40:01;;;;;;;36.88;22.10;;;;;;;5.43;78.10;97879.81;5076153;28;20044;-76
2021/11/06 04:42:29;;;;;;;28.25;18.42;;;;;;;5.37;78.35;97873.31;5076688;28;20055;-76
2021/11/06 04:44:57;;;;;;;30.88;19.13;;;;;;;5.37;78.55;97875.91;5076882;28;20048;-75
2021/11/06 04:47:24;;;;;;;41.60;17.80;;;;;;;5.36;78.32;97876.06;5076276;28;20052;-76
2021/11/06 04:49:56;;;;;;;54.17;21.50;;;;;;;5.33;78.09;97871.91;5076523;28;20114;-76
2021/11/06 04:52:25;;;;;;;56.65;20.08;;;;;;;5.26;78.30;97868.16;5075995;28;20045;-76
2021/11/06 04:54:54;;;;;;;57.22;21.58;;;;;;;5.18;78.47;97870.50;5076133;28;20052;-77
2021/11/06 04:57:22;;;;;;;36.90;18.15;;;;;;;5.13;79.01;97873.44;5076381;28;20498;-77
2021/11/06 04:59:50;;;;;;;38.08;18.40;;;;;;;5.13;78.82;97873.44;5075865;28;20052;-76
2021/11/06 05:02:17;;;;;;;62.90;19.15;;;;;;;5.05;78.48;97880.13;5075641;28;20052;-77
2021/11/06 05:04:45;;;;;;;46.25;18.17;;;;;;;4.94;78.86;97874.00;5075582;28;20056;-76
2021/11/06 05:07:12;;;;;;;27.90;15.65;;;;;;;4.95;79.44;97878.22;5075160;28;20055;-77
2021/11/06 05:09:40;;;;;;;28.63;16.25;;;;;;;5.00;80.38;97883.06;5075186;28;20048;-76
2021/11/06 05:12:10;;;;;;;39.28;19.13;;;;;;;5.05;80.10;97882.72;5075011;28;20234;-76
2021/11/06 05:14:37;;;;;;;58.65;18.40;;;;;;;4.99;79.28;97881.41;5074652;28;20049;-78
2021/11/06 05:17:05;;;;;;;37.28;16.85;;;;;;;4.90;79.37;97874.34;5074864;28;20422;-76
2021/11/06 05:19:32;;;;;;;43.17;17.90;;;;;;;4.86;79.64;97875.53;5075049;28;20060;-76
2021/11/06 05:22:00;;;;;;;36.33;16.15;;;;;;;4.86;80.17;97878.94;5075168;28;20048;-76
2021/11/06 05:24:28;;;;;;;58.78;18.08;;;;;;;4.88;79.70;97874.47;5074632;28;20063;-76
2021/11/06 05:26:55;;;;;;;40.88;16.65;;;;;;;4.86;79.62;97873.75;5074104;28;20060;-77
2021/11/06 05:29:24;;;;;;;101.97;19.42;;;;;;;4.86;79.77;97885.88;5074639;28;20056;-76
2021/11/06 05:31:52;;;;;;;88.93;19.95;;;;;;;4.81;79.80;97877.59;5075064;28;20086;-79
2021/11/06 05:34:19;;;;;;;87.97;20.85;;;;;;;4.74;79.76;97882.41;5074780;28;20057;-76
2021/11/06 05:36:47;;;;;;;101.15;20.23;;;;;;;4.66;79.71;97879.59;5074968;28;20056;-77
2021/11/06 05:39:14;;;;;;;66.80;18.35;;;;;;;4.60;80.07;97880.84;5074056;28;20052;-77
2021/11/06 05:41:42;;;;;;;31.35;16.08;;;;;;;4.62;81.18;97884.16;5074480;28;20094;-77
2021/11/06 05:44:09;;;;;;;77.47;17.52;;;;;;;4.69;80.74;97885.34;5075126;28;20048;-77
2021/11/06 05:46:38;;;;;;;78.38;18.10;;;;;;;4.71;80.57;97887.81;5074787;28;20049;-75
2021/11/06 05:49:06;;;;;;;27.27;15.07;;;;;;;4.71;80.67;97888.63;5074490;28;20052;-75
2021/11/06 05:51:37;;;;;;;35.83;16.40;;;;;;;4.74;80.97;97887.56;5075020;28;20048;-75
2021/11/06 05:54:04;;;;;;;59.67;17.63;;;;;;;4.71;80.23;97893.00;5074648;28;20514;-76
2021/11/06 05:56:32;;;;;;;94.13;18.02;;;;;;;4.60;79.72;97885.19;5074167;28;20049;-76
2021/11/06 05:58:59;;;;;;;53.47;15.95;;;;;;;4.50;80.41;97896.22;5073794;28;20060;-76
2021/11/06 06:01:27;;;;;;;46.38;15.82;;;;;;;4.45;80.15;97887.97;5074538;28;20052;-75
2021/11/06 06:03:56;;;;;;;44.08;16.27;;;;;;;4.44;80.47;97894.06;5074015;28;20056;-77
2021/11/06 06:06:23;;;;;;;46.50;13.07;;;;;;;4.44;80.38;97896.66;5074026;28;20044;-77
2021/11/06 06:08:51;;;;;;;61.17;15.23;;;;;;;4.38;80.27;97891.13;5073411;28;20512;-77
2021/11/06 06:11:18;;;;;;;31.25;13.68;;;;;;;4.37;80.54;97890.25;5073656;28;20049;-76
2021/11/06 06:13:46;;;;;;;49.38;14.27;;;;;;;4.37;80.33;97892.84;5073358;28;20098;-77
2021/11/06 06:16:13;;;;;;;29.20;13.68;;;;;;;4.38;81.68;97897.09;5073895;28;20051;-80
2021/11/06 06:18:44;;;;;;;29.05;14.35;;;;;;;4.43;80.99;97895.00;5076265;28;20049;-77
2021/11/06 06:21:14;;;;;;;65.78;14.27;;;;;;;4.40;79.88;97900.41;5075620;28;20060;-79
2021/11/06 06:23:42;;;;;;;45.83;14.30;;;;;;;4.29;80.18;97898.59;5072907;28;20048;-80
2021/11/06 06:26:09;;;;;;;37.60;12.52;;;;;;;4.22;80.03;97899.97;5073490;28;20055;-77
2021/11/06 06:28:37;;;;;;;43.33;13.20;;;;;;;4.18;80.14;97900.28;5074861;28;20264;-76
2021/11/06 06:31:05;;;;;;;38.42;13.75;;;;;;;4.17;80.44;97901.22;5074913;28;20049;-77
2021/11/06 06:33:33;;;;;;;47.38;12.73;;;;;;;4.15;80.08;97908.25;5073712;28;20048;-77
2021/11/06 06:36:00;;;;;;;47.25;13.05;;;;;;;4.15;79.85;97916.81;5073474;28;20047;-77
2021/11/06 06:38:29;;;;;;;33.90;12.90;;;;;;;4.14;79.84;97920.34;5072172;28;20055;-76
2021/11/06 06:40:57;;;;;;;55.38;14.27;;;;;;;4.13;79.87;97926.41;5073567;28;20048;-76
2021/11/06 06:43:24;;;;;;;53.45;15.20;;;;;;;4.08;79.53;97926.75;5073044;28;20509;-76
2021/11/06 06:45:52;;;;;;;48.50;14.63;;;;;;;4.04;79.64;97927.91;5073528;28;20423;-76
2021/11/06 06:48:19;;;;;;;22.48;11.77;;;;;;;4.02;80.05;97937.50;5072698;28;20056;-76
2021/11/06 06:50:49;;;;;;;52.83;14.48;;;;;;;4.01;79.36;97935.06;5072898;28;20052;-77
2021/11/06 06:53:17;;;;;;;63.95;15.70;;;;;;;3.96;79.46;97934.53;5073105;28;20053;-77
2021/11/06 06:55:46;;;;;;;39.13;15.13;;;;;;;3.94;79.45;97933.84;5072618;28;20502;-76
2021/11/06 06:58:13;;;;;;;61.65;14.60;;;;;;;3.93;79.69;97935.56;5072509;28;20106;-76
2021/11/06 07:00:41;;;;;;;34.92;12.32;;;;;;;3.91;79.43;97943.44;5072257;28;20048;-77
2021/11/06 07:03:09;;;;;;;49.45;13.35;;;;;;;3.90;79.17;97948.72;5072529;28;20168;-76
2021/11/06 07:05:36;;;;;;;36.20;12.52;;;;;;;3.87;79.54;97943.75;5072850;28;20465;-76
2021/11/06 07:08:05;;;;;;;22.08;11.32;;;;;;;3.89;79.49;97947.03;5072583;28;20425;-75
2021/11/06 07:10:34;;;;;;;32.15;12.43;;;;;;;3.90;79.30;97948.72;5072497;28;20095;-77
2021/11/06 07:13:05;;;;;;;23.08;11.77;;;;;;;3.92;79.18;97952.00;5072306;28;20048;-79
2021/11/06 07:15:32;;;;;;;31.20;12.18;;;;;;;3.94;79.22;97950.16;5072399;28;20053;-76
2021/11/06 07:18:00;;;;;;;32.97;12.88;;;;;;;3.94;79.19;97944.16;5072675;28;20056;-76
2021/11/06 07:20:28;;;;;;;23.30;11.20;;;;;;;3.97;79.47;97949.91;5072328;28;20098;-76
2021/11/06 07:22:56;;;;;;;24.05;12.02;;;;;;;4.03;79.15;97951.25;5072495;28;20090;-76
2021/11/06 07:25:23;;;;;;;28.05;12.30;;;;;;;3.99;78.86;97953.22;5072259;28;20048;-76
2021/11/06 07:27:51;;;;;;;34.70;14.63;;;;;;;3.97;78.97;97956.84;5072569;28;20506;-76
2021/11/06 07:30:21;;;;;;;29.08;13.18;;;;;;;3.98;78.55;97958.47;5071900;28;20060;-77
2021/11/06 07:32:49;;;;;;;23.58;12.40;;;;;;;3.94;78.69;97957.88;5072162;28;20498;-77
2021/11/06 07:35:17;;;;;;;29.77;13.07;;;;;;;3.94;79.02;97954.50;5072565;28;20051;-76
2021/11/06 07:37:45;;;;;;;30.95;11.90;;;;;;;3.97;78.66;97951.69;5072527;28;20052;-76
2021/11/06 07:40:14;;;;;;;23.23;11.05;;;;;;;3.97;79.06;97965.41;5072190;28;20053;-77
2021/11/06 07:42:44;;;;;;;23.50;11.90;;;;;;;3.99;78.78;97960.97;5072500;28;20048;-77
2021/11/06 07:45:13;;;;;;;18.98;11.95;;;;;;;4.02;78.60;97962.50;5072592;28;20051;-77
2021/11/06 07:47:42;;;;;;;20.08;12.13;;;;;;;4.06;78.48;97964.75;5073623;28;20053;-75
2021/11/06 07:50:10;;;;;;;20.50;11.45;;;;;;;4.09;79.13;97972.31;5073759;28;20182;-77
2021/11/06 07:52:38;;;;;;;19.65;11.90;;;;;;;4.18;78.99;97968.25;5076338;28;20420;-76
2021/11/06 07:55:06;;;;;;;18.65;11.77;;;;;;;4.25;78.60;97963.50;5076205;28;20044;-76
2021/11/06 07:57:34;;;;;;;20.17;11.90;;;;;;;4.30;78.30;97966.56;5076252;28;20056;-77
2021/11/06 08:00:04;;;;;;;25.30;12.20;;;;;;;4.35;78.00;97964.47;5075879;28;20102;-77
2021/11/06 08:02:32;;;;;;;18.42;11.85;;;;;;;4.45;78.30;97972.41;5076026;28;20413;-76
2021/11/06 08:05:06;;;;;;;25.45;13.52;;;;;;;4.46;77.73;97971.44;5076156;28;20393;-76
2021/11/06 08:07:33;;;;;;;21.77;12.70;;;;;;;4.48;77.87;97969.59;5076252;28;20059;-79
2021/11/06 08:10:01;;;;;;;19.95;11.68;;;;;;;4.51;77.70;97969.38;5075505;28;20517;-77
2021/11/06 08:12:29;;;;;;;16.48;9.88;;;;;;;4.59;77.74;97967.09;5076125;28;20147;-76
2021/11/06 08:14:57;;;;;;;16.10;10.60;;;;;;;4.78;79.06;97965.75;5076062;28;20048;-77
2021/11/06 08:17:24;;;;;;;18.25;10.75;;;;;;;4.99;78.84;97969.34;5076276;28;20052;-77
2021/11/06 08:19:52;;;;;;;15.52;10.23;;;;;;;5.20;78.07;97964.31;5075814;28;20048;-76
2021/11/06 08:22:25;;;;;;;14.80;10.38;;;;;;;5.33;77.18;97972.00;5076628;28;20109;-76
2021/11/06 08:24:52;;;;;;;17.08;11.52;;;;;;;5.52;77.97;97968.88;5076491;28;20052;-78
2021/11/06 08:27:21;;;;;;;17.08;10.80;;;;;;;5.71;77.28;97961.34;5076405;28;20067;-77
2021/11/06 08:29:49;;;;;;;17.17;10.30;;;;;;;5.91;76.54;97966.75;5076713;28;20048;-77
2021/11/06 08:32:17;;;;;;;15.98;10.68;;;;;;;6.08;75.47;97971.47;5077437;28;20060;-79
2021/11/06 08:34:44;;;;;;;15.02;9.60;;;;;;;6.18;75.07;97972.38;5077358;28;20048;-77
2021/11/06 08:37:12;;;;;;;14.48;10.20;;;;;;;6.35;74.65;97976.25;5077148;28;20056;-77
2021/11/06 08:39:41;;;;;;;13.85;9.65;;;;;;;6.54;73.68;97980.81;5077148;28;20045;-78
2021/11/06 08:42:09;;;;;;;14.35;10.30;;;;;;;6.70;73.23;97974.41;5078070;28;20082;-77
2021/11/06 08:44:36;;;;;;;15.07;10.23;;;;;;;6.91;74.17;97979.59;5077529;28;20127;-77
2021/11/06 08:47:04;;;;;;;15.13;10.50;;;;;;;7.19;74.33;97975.56;5077585;28;20052;-77
2021/11/06 08:49:32;;;;;;;16.30;10.98;;;;;;;7.45;74.54;97975.19;5078175;28;20082;-76
2021/11/06 08:52:00;;;;;;;15.73;11.45;;;;;;;7.70;74.42;97974.78;5077641;28;20052;-75
2021/11/06 08:54:28;;;;;;;16.92;10.43;;;;;;;7.93;72.29;97966.81;5077399;28;20059;-76
2021/11/06 08:56:58;;;;;;;14.18;10.57;;;;;;;8.15;71.64;97973.56;5077491;28;20055;-75
2021/11/06 08:59:26;;;;;;;18.83;10.70;;;;;;;8.36;71.80;97971.72;5076242;28;20071;-77
2021/11/06 09:01:56;;;;;;;17.30;10.77;;;;;;;8.55;69.56;97973.56;5075086;28;20102;-75
2021/11/06 09:04:24;;;;;;;16.67;11.32;;;;;;;8.74;71.20;97974.53;5075813;28;20048;-76
2021/11/06 09:06:53;;;;;;;19.27;11.75;;;;;;;8.94;71.73;97972.75;5075066;28;20052;-76
2021/11/06 09:09:20;;;;;;;27.13;13.52;;;;;;;9.12;71.56;97967.66;5074553;28;20052;-77
2021/11/06 09:11:51;;;;;;;18.20;13.52;;;;;;;9.30;70.21;97968.63;5074292;28;20421;-76
2021/11/06 09:14:20;;;;;;;20.60;12.82;;;;;;;9.49;68.22;97973.78;5074426;28;20059;-77
2021/11/06 09:16:47;;;;;;;18.75;12.43;;;;;;;9.62;66.70;97973.47;5074866;28;20478;-76
2021/11/06 09:19:15;;;;;;;18.02;13.32;;;;;;;9.78;65.87;97965.06;5076238;28;20430;-78
2021/11/06 09:21:44;;;;;;;20.15;13.88;;;;;;;9.92;65.20;97973.38;5077091;28;20055;-78
2021/11/06 09:24:12;;;;;;;20.42;13.38;;;;;;;10.03;64.82;97976.59;5074868;28;20049;-77
2021/11/06 09:26:42;;;;;;;17.75;12.68;;;;;;;10.14;63.76;97975.59;5074733;28;20102;-78
2021/11/06 09:29:11;;;;;;;17.65;13.35;;;;;;;10.30;63.63;97983.63;5075192;28;20060;-78
2021/11/06 09:31:42;;;;;;;21.38;14.77;;;;;;;10.46;62.28;97985.59;5077168;28;20049;-76
2021/11/06 09:34:11;;;;;;;17.85;13.18;;;;;;;10.57;62.45;97984.56;5075866;28;20041;-77
2021/11/06 09:36:39;;;;;;;20.67;14.73;;;;;;;10.72;64.72;97984.88;5075823;28;20053;-77
2021/11/06 09:39:10;;;;;;;19.70;13.60;;;;;;;10.93;65.48;97987.19;5076843;28;20063;-78
2021/11/06 09:41:39;;;;;;;18.08;12.93;;;;;;;11.18;65.18;97990.03;5078436;28;20572;-78
2021/11/06 09:44:08;;;;;;;17.58;12.35;;;;;;;11.36;64.90;97985.56;5078732;28;20053;-77
2021/11/06 09:46:35;;;;;;;19.30;13.98;;;;;;;11.59;64.26;97982.44;5079620;28;20049;-76
2021/11/06 09:49:04;;;;;;;18.88;13.45;;;;;;;11.77;60.70;97979.81;5079936;28;20430;-78
2021/11/06 09:51:33;;;;;;;19.20;13.75;;;;;;;11.94;60.25;97982.38;5079084;28;20041;-78
2021/11/06 09:54:05;;;;;;;20.10;14.05;;;;;;;12.12;58.46;97977.03;5078958;28;20044;-76
2021/11/06 09:56:33;;;;;;;18.67;14.27;;;;;;;12.33;58.30;97979.25;5078635;28;20494;-77
2021/11/06 09:59:01;;;;;;;19.13;13.95;;;;;;;12.55;59.10;97979.63;5078103;28;20525;-78
2021/11/06 10:01:30;;;;;;;19.70;14.00;;;;;;;12.76;57.55;97987.84;5078386;28;20055;-77
2021/11/06 10:03:58;;;;;;;17.67;13.25;;;;;;;12.96;56.28;97982.31;5077307;28;20060;-77
2021/11/06 10:06:29;;;;;;;18.75;14.57;;;;;;;13.16;57.55;97978.41;5077299;28;20531;-80
2021/11/06 10:08:57;;;;;;;18.52;13.48;;;;;;;13.23;57.28;97975.94;5075979;28;20059;-76
2021/11/06 10:11:30;;;;;;;18.33;14.45;;;;;;;13.21;59.00;97975.28;5076512;28;20045;-76
2021/11/06 10:14:00;;;;;;;21.23;14.65;;;;;;;13.22;55.61;97974.28;5076062;28;20040;-78
2021/11/06 10:16:34;;;;;;;19.27;13.85;;;;;;;13.28;54.73;97975.44;5076311;28;20053;-78
2021/11/06 10:19:09;;;;;;;20.45;14.55;;;;;;;13.38;54.95;97968.22;5075419;28;20052;-79
2021/11/06 10:21:40;;;;;;;20.20;14.30;;;;;;;13.54;54.62;97967.41;5075810;28;20048;-78
2021/11/06 10:24:07;;;;;;;19.23;14.25;;;;;;;13.69;54.19;97967.56;5076929;28;20044;-79
2021/11/06 10:26:36;;;;;;;19.63;14.10;;;;;;;13.69;53.95;97955.25;5076323;28;20055;-77
2021/11/06 10:29:07;;;;;;;19.90;14.45;;;;;;;13.75;53.33;97961.63;5076637;28;20057;-79
2021/11/06 10:31:57;;;;;;;;;;;;;;;13.94;54.34;97948.09;5077357;28;20108;-79
2021/11/06 10:34:26;;;;;;;17.65;12.90;;;;;;;14.11;53.16;97955.94;5076611;28;19920;-77
2021/11/06 10:36:59;;;;;;;19.42;13.80;;;;;;;14.25;52.22;97952.56;5077772;28;20044;-78
2021/11/06 10:39:27;;;;;;;16.48;12.35;;;;;;;14.43;55.25;97950.50;5077661;28;20048;-77
2021/11/06 10:42:10;;;;;;;18.48;13.98;;;;;;;14.46;51.29;97945.91;5078162;28;20055;-76
2021/11/06 10:44:39;;;;;;;17.00;13.50;;;;;;;14.24;52.26;97937.81;5078274;28;20064;-76
2021/11/06 10:47:06;;;;;;;16.50;12.25;;;;;;;13.94;53.27;97935.00;5077853;28;20059;-79
2021/11/06 10:49:35;;;;;;;18.33;13.50;;;;;;;13.66;52.91;97931.16;5076786;28;20464;-76
2021/11/06 10:52:07;;;;;;;17.33;12.88;;;;;;;13.47;52.92;97932.34;5075384;28;20049;-78
2021/11/06 10:54:54;;;;;;;19.50;13.95;;;;;;;13.30;53.65;97924.53;5078048;28;20056;-79
2021/11/06 10:57:23;;;;;;;18.55;14.07;;;;;;;13.09;54.98;97922.38;5075548;28;20057;-78
2021/11/06 11:00:06;;;;;;;18.98;13.65;;;;;;;12.92;54.61;97912.91;5075505;28;20499;-77
2021/11/06 11:02:34;;;;;;;18.33;13.48;;;;;;;12.99;55.27;97913.91;5076521;28;20072;-78
2021/11/06 11:05:01;;;;;;;17.90;13.35;;;;;;;13.08;54.81;97910.28;5076177;28;20056;-78
2021/11/06 11:07:30;;;;;;;18.38;13.73;;;;;;;13.09;54.57;97909.28;5075746;28;20052;-77
2021/11/06 11:09:57;;;;;;;20.05;12.82;;;;;;;13.02;54.73;97913.56;5075211;28;20485;-79
2021/11/06 11:12:25;;;;;;;19.02;14.07;;;;;;;12.85;54.67;97909.31;5075600;28;20048;-78
2021/11/06 11:14:54;;;;;;;17.33;13.52;;;;;;;12.72;56.84;97902.75;5075892;28;20048;-77
2021/11/06 11:17:39;;;;;;;19.15;14.80;;;;;;;12.56;55.50;97900.13;5076464;28;20319;-77
2021/11/06 11:20:26;;;;;;;20.20;14.00;;;;;;;12.39;55.66;97898.47;5076930;28;20048;-80
2021/11/06 11:23:13;;;;;;;17.40;13.52;;;;;;;12.22;55.86;97892.38;5076130;28;20048;-77
2021/11/06 11:25:41;;;;;;;17.90;13.07;;;;;;;12.10;60.08;97897.09;5076189;28;20053;-76
2021/11/06 11:28:10;;;;;;;16.58;12.63;;;;;;;12.04;58.96;97889.88;5076626;28;20055;-77
2021/11/06 11:30:38;;;;;;;18.35;12.93;;;;;;;12.00;59.32;97889.38;5074967;28;20425;-77